Time;durP1;ratioP1;P1;durP2;ratioP2;P2;SDS_P1;SDS_P2;PMS_P1;PMS_P2;Temp;Humidity;BMP_temperature;BMP_pressure;BME280_temperature;BME280_humidity;BME280_pressure;Samples;Min_cycle;Max_cycle;Signal;HPM_P1;HPM_P2
2021/10/22 00:00:20;;;;;;;11.48;2.25;;;;;;;7.49;86.48;100413.72;5027747;28;20060;-53
2021/10/22 00:02:46;;;;;;;11.73;4.72;;;;;;;7.45;87.26;100418.22;5021499;28;20080;-53
2021/10/22 00:05:13;;;;;;;11.73;3.10;;;;;;;7.41;87.29;100427.13;5019118;28;20045;-52
2021/10/22 00:07:40;;;;;;;11.23;2.50;;;;;;;7.38;87.78;100416.72;5024275;28;20076;-53
2021/10/22 00:10:08;;;;;;;17.67;6.70;;;;;;;7.34;88.41;100415.09;5021281;28;20044;-53
2021/10/22 00:12:34;;;;;;;13.10;3.75;;;;;;;7.34;88.67;100421.22;5029227;28;20045;-54
2021/10/22 00:15:01;;;;;;;17.15;4.50;;;;;;;7.17;88.46;100396.34;5024141;28;20045;-54
2021/10/22 00:17:27;;;;;;;26.85;10.68;;;;;;;7.24;88.70;100434.75;5019092;28;20044;-52
2021/10/22 00:19:54;;;;;;;11.52;4.78;;;;;;;7.19;89.36;100429.63;5020906;28;20045;-52
2021/10/22 00:22:20;;;;;;;21.83;9.40;;;;;;;7.17;89.23;100426.19;5025155;28;20053;-52
2021/10/22 00:24:47;;;;;;;26.30;10.38;;;;;;;7.03;89.48;100399.44;5036015;28;20099;-52
2021/10/22 00:27:14;;;;;;;13.18;4.43;;;;;;;7.14;90.29;100428.91;5026367;28;20068;-52
2021/10/22 00:29:40;;;;;;;9.88;4.10;;;;;;;6.99;90.14;100395.19;5025011;28;20421;-54
2021/10/22 00:32:07;;;;;;;10.52;2.55;;;;;;;7.10;90.30;100424.66;5018759;28;20045;-52
2021/10/22 00:34:33;;;;;;;16.60;4.03;;;;;;;7.03;90.40;100423.13;5021442;28;20045;-53
2021/10/22 00:37:01;;;;;;;14.68;3.58;;;;;;;7.04;90.33;100423.09;5036369;28;20045;-53
2021/10/22 00:39:27;;;;;;;15.40;2.97;;;;;;;7.01;90.04;100423.19;5017415;28;20049;-52
2021/10/22 00:41:54;;;;;;;11.23;2.70;;;;;;;7.03;89.46;100436.31;5024202;28;20049;-54
2021/10/22 00:44:21;;;;;;;12.40;2.50;;;;;;;6.87;90.11;100408.75;5027524;28;20045;-54
2021/10/22 00:46:47;;;;;;;15.32;3.63;;;;;;;7.00;90.33;100432.00;5018995;28;20059;-53
2021/10/22 00:49:14;;;;;;;16.98;4.85;;;;;;;6.99;90.88;100430.28;5024864;28;20480;-53
2021/10/22 00:51:42;;;;;;;9.65;2.90;;;;;;;7.00;90.36;100431.13;5035791;28;20044;-54
2021/10/22 00:54:11;;;;;;;12.93;2.45;;;;;;;6.94;90.49;100429.53;5026335;28;20056;-53
2021/10/22 00:56:37;;;;;;;13.75;4.28;;;;;;;6.80;89.91;100412.47;5025617;28;21994;-53
2021/10/22 00:59:06;;;;;;;17.27;5.35;;;;;;;6.89;90.39;100438.50;5019703;28;20064;-54
2021/10/22 01:01:39;;;;;;;13.75;3.42;;;;;;;6.86;90.67;100433.34;5032969;28;20049;-53
2021/10/22 01:04:07;;;;;;;14.10;3.75;;;;;;;6.90;90.33;100435.84;5027838;28;20049;-51
2021/10/22 01:06:36;;;;;;;17.05;3.25;;;;;;;6.87;90.77;100441.19;5015644;28;20045;-53
2021/10/22 01:09:06;;;;;;;14.40;2.70;;;;;;;6.87;91.13;100441.19;5014978;28;20045;-52
2021/10/22 01:11:34;;;;;;;12.18;2.97;;;;;;;6.88;90.45;100447.31;5028805;28;20064;-52
2021/10/22 01:14:02;;;;;;;8.88;2.22;;;;;;;6.83;90.72;100449.22;5022474;28;20052;-54
2021/10/22 01:16:29;;;;;;;17.10;3.17;;;;;;;6.81;90.50;100448.41;5022277;28;20524;-51
2021/10/22 01:18:55;;;;;;;11.25;2.80;;;;;;;6.77;90.41;100458.16;5016372;28;20052;-52
2021/10/22 01:21:22;;;;;;;12.02;3.13;;;;;;;6.69;91.54;100455.78;5023908;28;20140;-53
2021/10/22 01:23:49;;;;;;;14.63;2.60;;;;;;;6.72;91.42;100451.31;5022182;28;20052;-52
2021/10/22 01:26:18;;;;;;;10.45;2.33;;;;;;;6.65;91.87;100451.50;5039749;28;20095;-54
2021/10/22 01:28:44;;;;;;;13.27;2.70;;;;;;;6.63;92.00;100448.06;5034540;28;20494;-53
2021/10/22 01:31:11;;;;;;;10.50;2.55;;;;;;;6.64;91.56;100454.16;5021580;28;20060;-54
2021/10/22 01:33:39;;;;;;;11.23;2.58;;;;;;;6.62;91.41;100461.25;5020562;28;20045;-54
2021/10/22 01:36:05;;;;;;;9.40;2.25;;;;;;;6.57;91.46;100450.88;5025944;28;20045;-54
2021/10/22 01:38:32;;;;;;;10.18;2.45;;;;;;;6.51;91.58;100458.06;5011333;28;20049;-53
2021/10/22 01:40:59;;;;;;;12.32;2.33;;;;;;;6.47;92.32;100457.31;5031165;28;20049;-53
2021/10/22 01:43:26;;;;;;;8.15;2.33;;;;;;;6.44;92.46;100441.63;5024701;28;20052;-53
2021/10/22 01:45:53;;;;;;;12.68;2.17;;;;;;;6.40;92.25;100447.00;5004772;28;20536;-54
2021/10/22 01:48:20;;;;;;;13.45;2.58;;;;;;;6.36;93.22;100446.25;5002955;28;20053;-52
2021/10/22 01:50:46;;;;;;;8.73;2.10;;;;;;;6.38;93.07;100449.69;5009675;28;20050;-53
2021/10/22 01:53:15;;;;;;;11.68;2.30;;;;;;;6.36;93.41;100453.25;5009717;28;20052;-53
2021/10/22 01:55:42;;;;;;;8.55;2.65;;;;;;;6.29;93.33;100453.47;5010574;28;20053;-52
2021/10/22 01:58:09;;;;;;;11.25;2.40;;;;;;;6.26;93.97;100450.91;5007452;28;20059;-54
2021/10/22 02:00:36;;;;;;;10.25;2.45;;;;;;;6.26;94.11;100457.94;5007608;28;20059;-53
2021/10/22 02:03:03;;;;;;;10.32;2.70;;;;;;;6.24;93.75;100452.72;5012721;28;20540;-54
2021/10/22 02:05:30;;;;;;;13.07;2.53;;;;;;;6.20;94.09;100455.47;5006219;28;20272;-53
2021/10/22 02:07:57;;;;;;;11.52;2.63;;;;;;;6.15;94.02;100457.34;5005791;28;20061;-53
2021/10/22 02:10:23;;;;;;;11.98;3.08;;;;;;;6.13;94.56;100456.56;5012723;28;20045;-52
2021/10/22 02:12:50;;;;;;;13.05;2.45;;;;;;;6.10;94.52;100451.38;5022189;28;20515;-53
2021/10/22 02:15:16;;;;;;;15.15;3.75;;;;;;;6.07;94.34;100454.97;5041691;28;20490;-53
2021/10/22 02:17:43;;;;;;;11.50;2.63;;;;;;;6.05;94.39;100459.38;5020488;28;20045;-53
2021/10/22 02:20:10;;;;;;;10.40;3.05;;;;;;;6.02;94.78;100463.84;5023646;28;20383;-53
2021/10/22 02:22:37;;;;;;;11.13;2.50;;;;;;;5.99;94.96;100457.78;5029869;28;20049;-53
2021/10/22 02:25:05;;;;;;;9.07;2.38;;;;;;;6.01;95.56;100456.88;5027897;28;20044;-53
2021/10/22 02:27:31;;;;;;;9.65;2.38;;;;;;;5.99;95.33;100462.16;5034759;28;20135;-54
2021/10/22 02:30:16;;;;;;;18.38;3.40;;;;;;;5.95;95.84;100465.81;5017141;28;20490;-53
2021/10/22 02:32:42;;;;;;;10.20;3.08;;;;;;;5.88;95.62;100456.31;5025994;28;20045;-52
2021/10/22 02:35:09;;;;;;;13.23;3.70;;;;;;;5.76;96.05;100441.75;5016891;28;20045;-52
2021/10/22 02:37:36;;;;;;;14.20;3.05;;;;;;;5.86;96.33;100463.38;5014540;28;20041;-53
2021/10/22 02:40:04;;;;;;;12.73;3.00;;;;;;;5.85;95.71;100473.03;5013990;28;20049;-56
2021/10/22 02:42:30;;;;;;;12.48;2.92;;;;;;;5.84;96.33;100465.19;5019746;28;20984;-52
2021/10/22 02:44:57;;;;;;;8.27;2.58;;;;;;;5.85;96.16;100461.66;5025981;28;20413;-53
2021/10/22 02:47:23;;;;;;;11.68;3.08;;;;;;;5.88;96.01;100470.34;5033559;28;20052;-53
2021/10/22 02:49:50;;;;;;;16.45;3.30;;;;;;;5.86;95.37;100468.63;5019346;28;20049;-53
2021/10/22 02:52:16;;;;;;;12.35;3.20;;;;;;;5.84;95.71;100468.66;5022451;28;20050;-52
2021/10/22 02:54:43;;;;;;;12.60;2.97;;;;;;;5.82;96.13;100462.63;5017716;28;20053;-52
2021/10/22 02:57:09;;;;;;;12.98;3.53;;;;;;;5.78;96.64;100453.09;5018533;28;20045;-53
2021/10/22 02:59:36;;;;;;;11.80;2.63;;;;;;;5.73;96.34;100457.59;5018068;28;20042;-53
2021/10/22 03:02:02;;;;;;;16.27;3.50;;;;;;;5.70;96.58;100457.66;5040153;28;20120;-53
2021/10/22 03:04:29;;;;;;;12.70;3.55;;;;;;;5.70;97.23;100452.41;5021110;28;20132;-51
2021/10/22 03:06:55;;;;;;;11.18;3.20;;;;;;;5.69;97.40;100455.94;5035007;28;20049;-52
2021/10/22 03:09:22;;;;;;;13.57;3.17;;;;;;;5.69;97.71;100458.56;5032334;28;20055;-53
2021/10/22 03:11:48;;;;;;;12.80;3.78;;;;;;;5.66;97.32;100463.06;5028001;28;20052;-53
2021/10/22 03:14:15;;;;;;;13.65;2.90;;;;;;;5.64;97.24;100468.34;5035011;28;20057;-53
2021/10/22 03:16:43;;;;;;;18.50;3.42;;;;;;;5.63;97.25;100462.22;5024229;28;20050;-53
2021/10/22 03:19:12;;;;;;;13.57;3.72;;;;;;;5.64;97.80;100453.44;5034372;28;20049;-54
2021/10/22 03:21:42;;;;;;;11.60;3.13;;;;;;;5.62;97.35;100454.38;5026489;28;20045;-53
2021/10/22 03:24:09;;;;;;;14.77;3.33;;;;;;;5.67;97.23;100476.13;5026568;28;20496;-52
2021/10/22 03:26:35;;;;;;;9.52;2.85;;;;;;;5.70;97.63;100472.56;5027847;28;20049;-52
2021/10/22 03:29:02;;;;;;;10.27;3.13;;;;;;;5.70;97.29;100478.69;5036937;28;20068;-53
2021/10/22 03:31:29;;;;;;;15.63;3.50;;;;;;;5.69;96.37;100470.84;5017029;28;20060;-52
2021/10/22 03:33:56;;;;;;;10.25;3.13;;;;;;;5.71;96.69;100476.91;5025025;28;20062;-52
2021/10/22 03:36:22;;;;;;;14.00;3.55;;;;;;;5.69;96.08;100470.84;5022606;28;20057;-53
2021/10/22 03:38:49;;;;;;;11.63;3.50;;;;;;;5.70;96.62;100473.44;5034665;28;20052;-53
2021/10/22 03:41:17;;;;;;;10.50;3.30;;;;;;;5.69;96.44;100473.47;5033195;28;20069;-53
2021/10/22 03:43:43;;;;;;;11.50;3.80;;;;;;;5.66;96.75;100466.56;5023358;28;20050;-55
2021/10/22 03:46:10;;;;;;;17.42;3.85;;;;;;;5.65;97.11;100470.06;5026922;28;20041;-53
2021/10/22 03:48:36;;;;;;;11.00;3.10;;;;;;;5.71;96.72;100479.53;5029524;28;20060;-51
2021/10/22 03:51:03;;;;;;;9.95;2.97;;;;;;;5.72;96.62;100486.53;5028884;28;20059;-53
2021/10/22 03:53:29;;;;;;;16.05;3.42;;;;;;;5.70;96.62;100483.94;5030237;28;20063;-53
2021/10/22 03:55:56;;;;;;;16.10;3.47;;;;;;;5.72;96.49;100481.28;5034481;28;20603;-52
2021/10/22 03:58:22;;;;;;;12.98;3.42;;;;;;;5.71;96.52;100475.16;5034100;28;20049;-52
2021/10/22 04:00:49;;;;;;;11.50;3.08;;;;;;;5.70;96.05;100473.44;5020628;28;20049;-51
2021/10/22 04:03:15;;;;;;;10.95;3.42;;;;;;;5.68;96.63;100471.72;5042667;28;20792;-52
2021/10/22 04:05:44;;;;;;;13.38;3.35;;;;;;;5.58;95.94;100466.72;5028289;28;20048;-53
2021/10/22 04:08:11;;;;;;;16.42;3.47;;;;;;;5.69;95.93;100484.84;5030619;28;20132;-53
2021/10/22 04:10:41;;;;;;;14.73;4.03;;;;;;;5.69;96.36;100486.59;5022452;28;20055;-53
2021/10/22 04:13:11;;;;;;;15.65;3.28;;;;;;;5.70;95.90;100480.44;5025357;28;20052;-52
2021/10/22 04:15:40;;;;;;;11.85;2.83;;;;;;;5.65;95.35;100485.84;5027555;28;20045;-53
2021/10/22 04:18:06;;;;;;;16.48;4.10;;;;;;;5.62;96.47;100480.66;5032331;28;20045;-53
2021/10/22 04:20:34;;;;;;;9.02;3.17;;;;;;;5.62;96.10;100480.66;5021074;28;20045;-53
2021/10/22 04:23:05;;;;;;;12.73;3.67;;;;;;;5.59;95.98;100478.09;5026083;28;20064;-54
2021/10/22 04:25:34;;;;;;;11.25;3.65;;;;;;;5.60;96.42;100492.97;5040706;28;20053;-55
2021/10/22 04:28:01;;;;;;;12.35;3.13;;;;;;;5.62;96.74;100494.66;5031033;28;20052;-54
2021/10/22 04:30:28;;;;;;;16.30;4.00;;;;;;;5.61;96.45;100492.06;5023439;28;20052;-53
2021/10/22 04:32:55;;;;;;;13.30;3.25;;;;;;;5.57;96.33;100487.78;5030447;28;20048;-54
2021/10/22 04:35:21;;;;;;;11.48;3.63;;;;;;;5.53;96.09;100494.88;5027345;28;20045;-57
2021/10/22 04:40:31;;;;;;;12.98;3.72;;;;;;;5.40;96.01;100497.84;5025863;28;20045;-52
2021/10/22 04:43:02;;;;;;;9.45;3.17;;;;;;;5.32;96.04;100497.16;5021263;28;20045;-53
2021/10/22 04:45:31;;;;;;;16.15;3.72;;;;;;;5.28;96.54;100499.88;5027144;28;20048;-54
2021/10/22 04:47:59;;;;;;;10.05;3.60;;;;;;;5.26;96.52;100506.03;5024218;28;20059;-59
2021/10/22 04:50:26;;;;;;;16.15;3.90;;;;;;;5.22;96.55;100500.00;5026345;28;20064;-57
2021/10/22 04:52:55;;;;;;;11.43;3.60;;;;;;;5.22;96.32;100499.13;5033009;28;20053;-53
2021/10/22 04:55:24;;;;;;;9.82;3.05;;;;;;;5.12;96.39;100490.63;5025665;28;20063;-56
2021/10/22 04:57:51;;;;;;;14.30;3.70;;;;;;;5.15;96.00;100497.56;5027660;28;20057;-53
2021/10/22 05:00:18;;;;;;;18.02;3.63;;;;;;;5.12;96.39;100495.00;5027800;28;20045;-54
2021/10/22 05:02:45;;;;;;;12.80;3.50;;;;;;;5.12;97.09;100495.88;5046926;28;20055;-54
2021/10/22 05:05:12;;;;;;;12.77;3.78;;;;;;;5.11;96.79;100502.00;5030480;28;20049;-53
2021/10/22 05:07:39;;;;;;;12.68;3.65;;;;;;;5.08;96.79;100501.22;5025622;28;20049;-52
2021/10/22 05:10:06;;;;;;;9.82;3.45;;;;;;;5.06;97.02;100498.63;5023121;28;20049;-53
2021/10/22 05:12:33;;;;;;;11.52;3.65;;;;;;;5.06;97.22;100511.75;5036037;28;20074;-53
2021/10/22 05:15:00;;;;;;;11.77;3.35;;;;;;;5.08;97.25;100514.34;5036682;28;20063;-52
2021/10/22 05:17:27;;;;;;;15.48;3.33;;;;;;;5.06;96.86;100516.13;5017630;28;20781;-52
2021/10/22 05:19:54;;;;;;;14.00;4.00;;;;;;;5.08;97.52;100520.44;5019136;28;20130;-51
2021/10/22 05:22:21;;;;;;;12.98;3.45;;;;;;;5.08;97.29;100520.44;5028588;28;20556;-52
2021/10/22 05:24:47;;;;;;;16.45;3.90;;;;;;;5.09;97.45;100522.19;5024143;28;20037;-53
2021/10/22 05:27:14;;;;;;;13.93;3.70;;;;;;;5.12;96.39;100522.13;5041570;28;20497;-54
2021/10/22 05:29:40;;;;;;;11.77;3.38;;;;;;;5.07;96.21;100523.09;5028585;28;20045;-52
2021/10/22 05:32:07;;;;;;;14.95;3.80;;;;;;;5.06;96.00;100524.88;5038625;28;20414;-54
2021/10/22 05:34:33;;;;;;;9.68;3.63;;;;;;;5.06;95.80;100517.00;5034133;28;20045;-53
2021/10/22 05:37:00;;;;;;;14.38;3.75;;;;;;;5.03;96.11;100513.59;5030286;28;20046;-52
2021/10/22 05:39:26;;;;;;;12.25;3.70;;;;;;;5.05;96.67;100520.50;5029495;28;20045;-52
2021/10/22 05:41:53;;;;;;;12.55;3.38;;;;;;;4.99;96.59;100520.66;5030831;28;20070;-55
2021/10/22 05:44:20;;;;;;;11.95;4.35;;;;;;;5.05;96.96;100522.28;5034739;28;20060;-53
2021/10/22 05:46:50;;;;;;;14.52;3.45;;;;;;;5.04;96.06;100517.91;5028727;28;20091;-53
2021/10/22 05:49:16;;;;;;;13.20;3.53;;;;;;;5.00;95.96;100522.41;5029138;28;20063;-52
2021/10/22 05:51:43;;;;;;;16.48;4.07;;;;;;;4.98;96.33;100523.31;5017868;28;20475;-54
2021/10/22 05:54:10;;;;;;;13.20;3.50;;;;;;;4.94;96.36;100526.00;5019565;28;20056;-52
2021/10/22 05:56:36;;;;;;;17.00;3.97;;;;;;;4.94;96.53;100535.66;5033331;28;20045;-53
2021/10/22 05:59:03;;;;;;;16.70;4.07;;;;;;;4.89;96.37;100525.25;5028443;28;20402;-53
2021/10/22 06:01:30;;;;;;;14.60;4.28;;;;;;;5.00;96.03;100540.78;5018729;28;20057;-53
2021/10/22 06:03:57;;;;;;;11.48;3.60;;;;;;;4.99;96.22;100549.53;5019849;28;20443;-53
2021/10/22 06:06:23;;;;;;;12.15;3.88;;;;;;;5.00;95.46;100546.03;5031638;28;20057;-53
2021/10/22 06:08:51;;;;;;;17.02;4.05;;;;;;;5.05;95.97;100545.91;5029118;28;20517;-53
2021/10/22 06:11:18;;;;;;;14.98;3.85;;;;;;;5.06;96.19;100559.00;5022608;28;20140;-53
2021/10/22 06:13:45;;;;;;;19.92;3.42;;;;;;;5.05;95.16;100564.25;5037894;28;20099;-53
2021/10/22 06:16:13;;;;;;;13.23;4.13;;;;;;;5.07;95.38;100565.09;5026857;28;20056;-52
2021/10/22 06:18:47;;;;;;;15.50;4.20;;;;;;;5.02;95.21;100569.59;5025381;28;20083;-54
2021/10/22 06:23:54;;;;;;;13.35;4.05;;;;;;;5.02;95.43;100572.22;5024520;28;20144;-52
2021/10/22 06:26:26;;;;;;;16.13;4.15;;;;;;;5.04;94.60;100571.28;5029146;28;20067;-53
2021/10/22 06:28:53;;;;;;;13.90;3.92;;;;;;;5.07;94.90;100580.84;5018299;28;20073;-52
2021/10/22 06:31:22;;;;;;;10.98;4.43;;;;;;;5.09;94.99;100579.94;5018662;28;20140;-52
2021/10/22 06:33:49;;;;;;;11.48;3.72;;;;;;;5.10;94.45;100576.41;5020568;28;20390;-53
2021/10/22 06:36:16;;;;;;;15.38;5.07;;;;;;;5.14;95.07;100580.69;5020081;28;20053;-53
2021/10/22 06:38:42;;;;;;;13.88;4.38;;;;;;;5.18;94.03;100581.50;5027351;28;20493;-53
2021/10/22 06:41:09;;;;;;;13.77;4.10;;;;;;;5.23;93.71;100601.50;5026303;28;20037;-51
2021/10/22 06:43:37;;;;;;;10.48;3.95;;;;;;;5.19;94.25;100602.47;5021477;28;20049;-52
2021/10/22 06:46:04;;;;;;;12.13;4.10;;;;;;;5.24;94.50;100607.59;5031370;28;20041;-54
2021/10/22 06:48:31;;;;;;;15.73;4.38;;;;;;;5.24;94.10;100610.22;5021591;28;20049;-53
2021/10/22 06:50:58;;;;;;;13.98;4.15;;;;;;;5.31;93.66;100624.09;5022436;28;20527;-52
2021/10/22 06:53:25;;;;;;;11.82;4.30;;;;;;;5.37;93.97;100622.19;5028548;28;20040;-53
2021/10/22 06:55:52;;;;;;;17.50;4.70;;;;;;;5.42;93.07;100619.47;5022094;28;20498;-52
2021/10/22 06:58:18;;;;;;;11.93;4.07;;;;;;;5.45;93.05;100629.91;5019520;28;20059;-52
2021/10/22 07:00:49;;;;;;;15.30;4.45;;;;;;;5.48;93.23;100629.84;5015541;28;20048;-52
2021/10/22 07:03:22;;;;;;;14.02;4.55;;;;;;;5.49;92.83;100626.31;5024081;28;20118;-54
2021/10/22 07:08:25;;;;;;;13.27;4.45;;;;;;;5.62;91.79;100630.41;5024125;28;20037;-51
2021/10/22 07:10:52;;;;;;;18.33;4.30;;;;;;;5.67;91.60;100635.56;5013702;28;20053;-52
2021/10/22 07:13:20;;;;;;;10.68;4.00;;;;;;;5.70;91.39;100633.69;5024105;28;20056;-51
2021/10/22 07:15:47;;;;;;;14.88;4.13;;;;;;;5.72;90.15;100631.91;5019384;28;20045;-52
2021/10/22 07:18:15;;;;;;;10.65;4.15;;;;;;;5.79;90.22;100641.38;5016644;28;20053;-53
2021/10/22 07:20:41;;;;;;;17.25;4.28;;;;;;;5.84;90.10;100626.34;5003014;28;20036;-54
2021/10/22 07:23:10;;;;;;;13.02;3.90;;;;;;;5.90;90.38;100633.25;5030208;28;20136;-51
2021/10/22 07:25:40;;;;;;;11.45;3.85;;;;;;;5.93;89.60;100634.06;5027683;28;20056;-53
2021/10/22 07:28:13;;;;;;;13.75;4.38;;;;;;;5.99;90.24;100631.25;5039666;28;20041;-54
2021/10/22 07:30:44;;;;;;;14.65;4.18;;;;;;;6.08;90.09;100638.06;5023288;28;20053;-51
2021/10/22 07:33:12;;;;;;;16.90;4.20;;;;;;;6.13;89.85;100633.59;5027878;28;20041;-52
2021/10/22 07:35:41;;;;;;;14.52;4.72;;;;;;;6.22;89.04;100643.00;5024938;28;20057;-54
2021/10/22 07:38:11;;;;;;;17.27;4.32;;;;;;;6.25;88.01;100641.16;5024095;28;20053;-52
2021/10/22 07:40:40;;;;;;;13.07;4.03;;;;;;;6.28;88.04;100641.09;5034830;28;20123;-52
2021/10/22 07:43:07;;;;;;;12.05;4.13;;;;;;;6.38;87.17;100641.69;5023906;28;20053;-52
2021/10/22 07:45:34;;;;;;;16.90;4.50;;;;;;;6.46;87.05;100638.84;5024963;28;20617;-53
2021/10/22 07:48:00;;;;;;;14.02;3.90;;;;;;;6.49;87.28;100630.88;5027568;28;20451;-53
2021/10/22 07:50:27;;;;;;;13.82;4.30;;;;;;;6.57;85.68;100628.94;5020160;28;20046;-54
2021/10/22 07:52:53;;;;;;;18.30;4.93;;;;;;;6.63;86.02;100637.50;5018120;28;20140;-52
2021/10/22 07:55:21;;;;;;;14.45;4.05;;;;;;;6.72;84.73;100632.91;5026743;28;20044;-55
2021/10/22 07:57:48;;;;;;;14.00;4.07;;;;;;;6.76;84.90;100632.78;5020462;28;20045;-54
2021/10/22 08:00:14;;;;;;;15.07;4.22;;;;;;;6.83;85.16;100625.56;5021160;28;21596;-54
2021/10/22 08:02:41;;;;;;;12.68;4.10;;;;;;;6.94;85.08;100620.84;5025195;28;20060;-53
2021/10/22 08:05:09;;;;;;;14.82;4.20;;;;;;;7.03;84.29;100618.84;5021041;28;20136;-55
2021/10/22 08:07:38;;;;;;;14.98;3.90;;;;;;;7.28;82.76;100623.38;5021415;28;20064;-53
2021/10/22 08:10:07;;;;;;;9.50;3.88;;;;;;;7.47;81.71;100607.88;5023692;28;20045;-53
2021/10/22 08:12:35;;;;;;;14.10;4.10;;;;;;;7.98;78.04;100613.28;5026594;28;20047;-53
2021/10/22 08:15:03;;;;;;;14.60;3.58;;;;;;;7.82;79.07;100618.19;5025826;28;20046;-53
2021/10/22 08:17:29;;;;;;;13.75;4.32;;;;;;;7.86;77.69;100609.28;5024030;28;20045;-53
2021/10/22 08:22:31;;;;;;;14.68;3.30;;;;;;;8.01;77.45;100603.50;5020971;28;20053;-53
2021/10/22 08:25:03;;;;;;;13.55;3.45;;;;;;;8.01;77.93;100592.94;5027418;28;20045;-52
2021/10/22 08:27:36;;;;;;;15.32;3.63;;;;;;;8.02;78.39;100597.31;5026604;28;20037;-53
2021/10/22 08:30:05;;;;;;;14.50;3.40;;;;;;;8.04;77.24;100597.22;5018737;28;20059;-55
2021/10/22 08:32:32;;;;;;;15.38;3.65;;;;;;;8.01;78.19;100587.69;5018485;28;20498;-52
2021/10/22 08:34:59;;;;;;;11.18;3.53;;;;;;;8.15;76.93;100602.16;5022482;28;20041;-52
2021/10/22 08:37:26;;;;;;;12.73;3.20;;;;;;;8.19;76.44;100603.75;5021657;28;20049;-54
2021/10/22 08:39:54;;;;;;;9.98;3.08;;;;;;;8.20;76.12;100602.84;5021781;28;20049;-52
2021/10/22 08:42:24;;;;;;;13.48;3.45;;;;;;;8.05;75.97;100605.09;5019148;28;20078;-51
2021/10/22 08:44:52;;;;;;;11.38;3.38;;;;;;;8.07;75.93;100608.56;5027993;28;20049;-53
2021/10/22 08:47:21;;;;;;;14.20;3.10;;;;;;;8.10;76.20;100616.38;5024602;28;20049;-52
2021/10/22 08:49:47;;;;;;;12.93;3.50;;;;;;;8.13;76.43;100625.09;5023920;28;20043;-52
2021/10/22 08:52:14;;;;;;;10.20;3.28;;;;;;;7.99;76.81;100605.31;5020703;28;20048;-53
2021/10/22 08:54:41;;;;;;;14.00;3.10;;;;;;;8.05;76.99;100620.91;5005615;28;20056;-53
2021/10/22 08:57:13;;;;;;;13.43;3.72;;;;;;;8.06;77.46;100637.59;5023674;28;20591;-51
2021/10/22 08:59:40;;;;;;;10.13;2.65;;;;;;;8.19;76.59;100636.28;5018986;28;20047;-52
2021/10/22 09:02:21;;;;;;;12.55;3.10;;;;;;;8.24;77.00;100628.22;5014983;28;20413;-53
2021/10/22 09:04:49;;;;;;;13.63;3.35;;;;;;;8.32;76.77;100629.75;5014951;28;20049;-59
2021/10/22 09:07:18;;;;;;;11.93;3.00;;;;;;;8.38;76.63;100628.66;5016665;28;20057;-53
2021/10/22 09:09:46;;;;;;;12.63;3.38;;;;;;;8.46;76.17;100631.03;5016287;28;20183;-52
2021/10/22 09:12:13;;;;;;;11.50;3.22;;;;;;;8.56;75.81;100638.56;5015820;28;20068;-52
2021/10/22 09:14:59;;;;;;;11.70;3.25;;;;;;;8.58;74.88;100627.97;5025246;28;20059;-52
2021/10/22 09:17:36;;;;;;;10.77;3.17;;;;;;;8.62;74.17;100611.97;5029818;28;20053;-52
2021/10/22 09:20:04;;;;;;;13.18;2.88;;;;;;;8.86;73.88;100627.84;5022971;28;20642;-52
2021/10/22 09:22:35;;;;;;;10.05;2.92;;;;;;;9.01;72.53;100637.84;5012661;28;20075;-53
2021/10/22 09:25:11;;;;;;;13.45;3.03;;;;;;;9.06;71.86;100639.41;5015513;28;20048;-54
2021/10/22 09:27:53;;;;;;;15.25;3.08;;;;;;;9.18;71.01;100631.94;5018472;28;20060;-52
2021/10/22 09:30:47;;;;;;;10.88;2.60;;;;;;;9.33;70.67;100626.94;5020147;28;20041;-52
2021/10/22 09:33:17;;;;;;;12.40;2.67;;;;;;;9.52;69.72;100631.53;5020399;28;20063;-52
2021/10/22 09:35:46;;;;;;;12.55;2.75;;;;;;;9.66;68.44;100634.50;5032047;28;20053;-52
2021/10/22 09:38:19;;;;;;;10.75;2.55;;;;;;;9.79;67.17;100643.66;5034619;28;20045;-54
2021/10/22 09:40:57;;;;;;;12.35;2.60;;;;;;;9.90;66.57;100641.47;5027183;28;20049;-52
2021/10/22 09:43:26;;;;;;;9.60;2.88;;;;;;;10.36;64.62;100636.94;5034994;28;20049;-53
2021/10/22 09:46:16;;;;;;;10.77;2.72;;;;;;;11.07;61.98;100633.78;5034960;28;20064;-52
2021/10/22 09:48:57;;;;;;;10.63;2.30;;;;;;;11.67;59.86;100633.66;5032706;28;20080;-54
2021/10/22 09:51:27;;;;;;;9.43;2.35;;;;;;;11.95;57.97;100639.41;5030988;28;20852;-51
2021/10/22 09:54:03;;;;;;;12.05;2.55;;;;;;;12.30;55.57;100608.44;5034920;28;20138;-53
2021/10/22 09:56:30;;;;;;;8.75;2.58;;;;;;;12.67;54.96;100619.84;5041688;28;20063;-52
2021/10/22 09:59:04;;;;;;;7.75;2.13;;;;;;;12.96;53.95;100635.97;5042989;28;20052;-51
2021/10/22 10:01:40;;;;;;;10.20;2.13;;;;;;;12.88;52.50;100635.53;5030431;28;20041;-51
2021/10/22 10:04:08;;;;;;;6.00;1.92;;;;;;;12.99;51.87;100627.84;5042307;28;20136;-52
2021/10/22 10:06:57;;;;;;;8.43;2.65;;;;;;;13.09;52.36;100635.31;5032276;28;20045;-52
2021/10/22 10:09:27;;;;;;;6.72;2.20;;;;;;;13.26;51.40;100640.63;5042759;28;20045;-53
2021/10/22 10:11:55;;;;;;;10.10;1.95;;;;;;;13.22;52.68;100639.09;5030564;28;20051;-52
2021/10/22 10:14:25;;;;;;;8.20;2.25;;;;;;;13.55;51.62;100633.72;5033138;28;20048;-51
2021/10/22 10:16:53;;;;;;;13.85;2.42;;;;;;;13.90;50.70;100626.41;5036093;28;20410;-52
2021/10/22 10:19:50;;;;;;;7.68;2.10;;;;;;;13.74;49.30;100634.41;5046308;28;20134;-53
2021/10/22 10:22:19;;;;;;;8.07;2.05;;;;;;;13.79;49.69;100631.50;5030728;28;20044;-53
2021/10/22 10:24:55;;;;;;;7.28;2.03;;;;;;;13.75;49.65;100627.28;5041647;28;20052;-52
2021/10/22 10:27:26;;;;;;;5.13;1.52;;;;;;;13.36;50.72;100617.06;5038197;28;20246;-52
2021/10/22 10:30:05;;;;;;;13.00;2.25;;;;;;;13.27;51.34;100610.44;5037265;28;20548;-51
2021/10/22 10:32:32;;;;;;;6.70;1.60;;;;;;;13.21;52.23;100611.66;5030569;28;20045;-55
2021/10/22 10:35:02;;;;;;;9.50;2.30;;;;;;;13.02;51.72;100615.34;5044182;28;20569;-53
2021/10/22 10:37:31;;;;;;;8.25;1.83;;;;;;;12.80;52.68;100615.59;5045460;28;20079;-53
2021/10/22 10:40:00;;;;;;;6.57;1.65;;;;;;;12.78;52.81;100613.03;5043496;28;21263;-52
2021/10/22 10:42:33;;;;;;;9.30;2.22;;;;;;;12.84;52.42;100611.84;5032490;28;20501;-53
2021/10/22 10:45:14;;;;;;;8.30;2.13;;;;;;;12.55;53.59;100602.75;5031893;28;20045;-53
2021/10/22 10:47:48;;;;;;;;;;;;;;;12.24;54.15;100611.44;5045314;28;20061;-53
2021/10/22 10:50:17;;;;;;;6.65;1.58;;;;;;;11.96;55.52;100619.06;5042381;28;20293;-52
2021/10/22 10:52:52;;;;;;;9.27;2.08;;;;;;;11.72;56.46;100600.69;5030240;28;20048;-52
2021/10/22 10:55:31;;;;;;;5.57;1.70;;;;;;;11.73;56.42;100615.66;5042612;28;20041;-53
2021/10/22 10:58:06;;;;;;;7.97;1.88;;;;;;;11.84;56.75;100610.72;5042868;28;20059;-53
2021/10/22 11:00:35;;;;;;;5.97;1.92;;;;;;;11.89;56.29;100600.75;5030486;28;20064;-54
2021/10/22 11:03:01;;;;;;;8.23;1.92;;;;;;;11.88;56.67;100599.03;5030121;28;20399;-53
2021/10/22 11:05:47;;;;;;;9.05;2.28;;;;;;;11.89;56.46;100594.59;5040893;28;20045;-52
2021/10/22 11:08:18;;;;;;;7.57;1.80;;;;;;;11.87;56.40;100599.97;5042658;28;20638;-53
2021/10/22 11:11:04;;;;;;;10.07;2.33;;;;;;;11.82;56.47;100587.84;5038221;28;20044;-52
2021/10/22 11:13:51;;;;;;;10.73;2.67;;;;;;;11.82;56.88;100603.78;5034559;28;20045;-52
2021/10/22 11:16:21;;;;;;;5.10;1.60;;;;;;;11.94;56.03;100587.28;5035509;28;20041;-52
2021/10/22 11:18:54;;;;;;;9.63;2.28;;;;;;;11.97;56.26;100592.41;5044092;28;20048;-52
2021/10/22 11:21:22;;;;;;;4.80;1.30;;;;;;;11.95;54.10;100596.97;5035389;28;20045;-52
2021/10/22 11:23:50;;;;;;;5.65;1.55;;;;;;;12.03;53.77;100572.69;5031636;28;20049;-53
2021/10/22 11:26:19;;;;;;;6.07;1.42;;;;;;;12.05;52.75;100576.97;5038092;28;20044;-52
2021/10/22 11:28:51;;;;;;;5.95;1.48;;;;;;;12.11;53.25;100583.78;5045837;28;20411;-54
2021/10/22 11:31:57;;;;;;;3.55;1.20;;;;;;;12.15;52.77;100575.56;5033312;28;20045;-52
2021/10/22 11:34:32;;;;;;;6.80;1.10;;;;;;;12.25;52.47;100574.19;5032997;28;20068;-55
2021/10/22 11:37:05;;;;;;;6.07;1.85;;;;;;;12.34;52.33;100574.63;5037962;28;20075;-52
2021/10/22 11:39:40;;;;;;;7.03;1.58;;;;;;;12.41;51.61;100576.06;5044298;28;20378;-51
2021/10/22 11:42:14;;;;;;;6.97;1.38;;;;;;;12.41;51.52;100571.59;5030021;28;20045;-54
2021/10/22 11:44:50;;;;;;;7.22;1.55;;;;;;;12.50;51.32;100578.22;5037300;28;20056;-52